createdAt,value
2019-06-26T00:00:25.244Z,8.10
2019-06-26T00:02:55.063Z,8.20
2019-06-26T00:05:24.919Z,7.33
2019-06-26T00:07:54.833Z,8.70
2019-06-26T00:10:24.741Z,9.33
2019-06-26T00:12:54.582Z,8.60
2019-06-26T00:15:24.545Z,8.17
2019-06-26T00:17:54.230Z,8.27
2019-06-26T00:20:24.099Z,8.37
2019-06-26T00:22:54.143Z,8.60
2019-06-26T00:25:23.825Z,8.70
2019-06-26T00:27:53.548Z,8.40
2019-06-26T00:30:23.358Z,8.57
2019-06-26T00:32:53.172Z,8.60
2019-06-26T00:35:22.994Z,9.87
2019-06-26T00:37:52.824Z,8.27
2019-06-26T00:40:22.928Z,8.93
2019-06-26T00:42:52.846Z,8.43
2019-06-26T00:45:22.573Z,8.93
2019-06-26T00:47:52.405Z,10.20
2019-06-26T00:50:22.271Z,9.70
2019-06-26T00:52:52.021Z,8.73
2019-06-26T00:55:21.935Z,9.00
2019-06-26T00:57:51.676Z,8.80
2019-06-26T01:00:27.129Z,9.30
2019-06-26T01:02:56.872Z,8.60
2019-06-26T01:05:26.600Z,9.43
2019-06-26T01:07:56.491Z,9.60
2019-06-26T01:10:26.364Z,10.03
2019-06-26T01:12:56.107Z,9.13
2019-06-26T01:15:25.888Z,10.37
2019-06-26T01:17:55.648Z,8.47
2019-06-26T01:20:25.393Z,9.53
2019-06-26T01:22:55.091Z,9.23
2019-06-26T01:25:24.881Z,10.03
2019-06-26T01:27:54.769Z,9.50
2019-06-26T01:30:24.614Z,10.20
2019-06-26T01:32:54.443Z,10.33
2019-06-26T01:35:24.253Z,10.70
2019-06-26T01:37:54.021Z,10.07
2019-06-26T01:40:23.875Z,10.37
2019-06-26T01:42:53.557Z,9.23
2019-06-26T01:45:23.332Z,10.70
2019-06-26T01:47:53.225Z,10.00
2019-06-26T01:50:23.066Z,9.27
2019-06-26T01:52:52.852Z,8.40
2019-06-26T01:55:22.611Z,8.97
2019-06-26T01:57:52.379Z,9.47
2019-06-26T02:00:22.540Z,9.47
2019-06-26T02:02:52.417Z,10.70
2019-06-26T02:05:22.236Z,9.53
2019-06-26T02:07:52.072Z,9.63
2019-06-26T02:10:21.949Z,10.67
2019-06-26T02:12:51.740Z,10.53
2019-06-26T02:15:21.675Z,10.40
2019-06-26T02:17:51.608Z,10.97
2019-06-26T02:20:21.335Z,9.77
2019-06-26T02:22:51.105Z,10.43
2019-06-26T02:25:21.011Z,9.73
2019-06-26T02:27:50.859Z,10.30
2019-06-26T02:30:20.692Z,10.47
2019-06-26T02:32:50.499Z,10.43
2019-06-26T02:35:20.295Z,10.90
2019-06-26T02:37:50.157Z,9.60
2019-06-26T02:40:20.100Z,10.67
2019-06-26T02:42:49.952Z,10.87
2019-06-26T02:45:19.662Z,10.57
2019-06-26T02:47:49.433Z,10.40
2019-06-26T02:50:19.229Z,9.73
2019-06-26T02:52:49.087Z,10.27
2019-06-26T02:55:18.946Z,11.40
2019-06-26T02:57:48.685Z,9.60
2019-06-26T03:00:18.573Z,10.73
2019-06-26T03:02:48.287Z,10.70
2019-06-26T03:05:18.171Z,10.60
2019-06-26T03:07:47.945Z,10.17
2019-06-26T03:10:17.946Z,11.07
2019-06-26T03:12:47.645Z,10.53
2019-06-26T03:15:17.989Z,10.67
2019-06-26T03:17:55.520Z,11.83
2019-06-26T03:20:22.213Z,9.90
2019-06-26T03:22:52.078Z,10.93
2019-06-26T03:25:22.049Z,10.37
2019-06-26T03:27:51.833Z,11.50
2019-06-26T03:30:21.786Z,10.40
2019-06-26T03:32:51.565Z,10.43
2019-06-26T03:35:21.405Z,9.97
2019-06-26T03:37:51.189Z,11.07
2019-06-26T03:40:21.032Z,10.83
2019-06-26T03:42:50.836Z,11.57
2019-06-26T03:45:25.568Z,10.97
2019-06-26T03:47:52.271Z,11.60
2019-06-26T03:50:22.233Z,10.10
2019-06-26T03:52:52.170Z,10.83
2019-06-26T03:55:22.118Z,11.03
2019-06-26T03:57:51.877Z,11.13
2019-06-26T04:00:33.507Z,10.97
2019-06-26T04:03:03.200Z,10.53
2019-06-26T04:05:33.794Z,10.57
2019-06-26T04:08:03.819Z,10.43
2019-06-26T04:10:34.581Z,11.83
2019-06-26T04:13:04.666Z,11.43
2019-06-26T04:15:41.883Z,11.47
2019-06-26T04:18:06.081Z,11.87
2019-06-26T04:20:35.844Z,9.90
2019-06-26T04:23:05.698Z,10.20
2019-06-26T04:25:38.082Z,11.57
2019-06-26T04:28:06.981Z,11.10
2019-06-26T04:30:36.769Z,11.20
2019-06-26T04:33:06.547Z,11.73
2019-06-26T04:35:36.265Z,10.47
2019-06-26T04:38:06.106Z,11.97
2019-06-26T04:40:35.876Z,11.57
2019-06-26T04:43:05.674Z,11.13
2019-06-26T04:45:35.435Z,10.63
2019-06-26T04:48:07.170Z,13.20
2019-06-26T04:50:36.767Z,12.97
2019-06-26T04:53:06.627Z,14.67
2019-06-26T04:55:36.522Z,13.20
2019-06-26T04:58:06.336Z,11.90
2019-06-26T05:00:36.126Z,12.20
2019-06-26T05:03:06.019Z,13.87
2019-06-26T05:05:39.808Z,13.40
2019-06-26T05:08:07.233Z,13.30
2019-06-26T05:10:37.060Z,14.30
2019-06-26T05:13:06.858Z,12.33
2019-06-26T05:15:36.666Z,14.10
2019-06-26T05:18:06.444Z,14.53
2019-06-26T05:20:36.189Z,13.13
2019-06-26T05:23:06.015Z,13.13
2019-06-26T05:25:35.818Z,11.73
2019-06-26T05:28:08.264Z,11.27
2019-06-26T05:30:37.201Z,11.53
2019-06-26T05:33:06.905Z,11.90
2019-06-26T05:35:36.877Z,11.22
2019-06-26T05:38:06.736Z,10.38
2019-06-26T05:40:36.426Z,10.18
2019-06-26T05:43:06.314Z,11.45
2019-06-26T05:45:36.161Z,11.08
2019-06-26T05:48:06.078Z,11.70
2019-06-26T05:50:35.886Z,11.35
2019-06-26T05:53:05.803Z,10.68
2019-06-26T05:55:35.649Z,11.22
2019-06-26T05:58:05.442Z,12.33
2019-06-26T06:00:35.219Z,11.48
2019-06-26T06:03:05.152Z,12.10
2019-06-26T06:05:35.034Z,11.38
2019-06-26T06:08:04.871Z,11.20
2019-06-26T06:10:34.723Z,11.28
2019-06-26T06:13:04.586Z,11.85
2019-06-26T06:15:34.314Z,11.03
2019-06-26T06:18:04.261Z,11.18
2019-06-26T06:20:38.883Z,12.00
2019-06-26T06:23:08.800Z,13.05
2019-06-26T06:25:38.711Z,11.80
2019-06-26T06:28:08.556Z,11.88
2019-06-26T06:30:38.324Z,12.18
2019-06-26T06:33:08.187Z,11.83
2019-06-26T06:35:37.957Z,12.05
2019-06-26T06:38:07.933Z,11.70
2019-06-26T06:40:37.702Z,14.33
2019-06-26T06:43:07.501Z,12.30
2019-06-26T06:45:37.349Z,11.55
2019-06-26T06:48:07.134Z,10.43
2019-06-26T06:50:36.845Z,11.75
2019-06-26T06:53:06.708Z,11.28
2019-06-26T06:55:36.512Z,11.48
2019-06-26T06:58:06.319Z,11.90
2019-06-26T07:00:36.255Z,12.05
2019-06-26T07:03:06.090Z,11.10
2019-06-26T07:05:35.898Z,11.12
2019-06-26T07:08:05.769Z,12.47
2019-06-26T07:10:35.674Z,10.72
2019-06-26T07:13:06.348Z,10.55
2019-06-26T07:15:36.141Z,12.00
2019-06-26T07:18:06.007Z,11.10
2019-06-26T07:20:35.869Z,10.58
2019-06-26T07:23:05.783Z,10.78
2019-06-26T07:25:35.636Z,11.60
2019-06-26T07:28:05.458Z,11.35
2019-06-26T07:30:35.243Z,11.10
2019-06-26T07:33:05.235Z,12.55
2019-06-26T07:35:35.072Z,10.93
2019-06-26T07:38:04.823Z,9.43
2019-06-26T07:40:34.767Z,10.25
2019-06-26T07:43:04.568Z,11.33
2019-06-26T07:45:34.274Z,10.72
2019-06-26T07:48:04.146Z,12.05
2019-06-26T07:50:34.012Z,10.13
2019-06-26T07:53:04.754Z,10.15
2019-06-26T07:55:34.437Z,9.50
2019-06-26T07:58:04.321Z,9.15
2019-06-26T08:00:34.294Z,9.70
2019-06-26T08:03:04.712Z,9.55
2019-06-26T08:05:34.999Z,9.60
2019-06-26T08:08:04.810Z,8.98
2019-06-26T08:10:34.519Z,9.38
2019-06-26T08:13:04.572Z,9.35
2019-06-26T08:15:34.407Z,10.48
2019-06-26T08:18:04.170Z,8.15
2019-06-26T08:20:47.036Z,8.35
2019-06-26T08:23:05.341Z,8.28
2019-06-26T08:25:35.197Z,11.20
2019-06-26T08:28:05.067Z,9.15
2019-06-26T08:30:34.897Z,10.70
2019-06-26T08:33:04.883Z,10.48
2019-06-26T08:35:34.665Z,9.78
2019-06-26T08:38:12.419Z,10.32
2019-06-26T08:40:36.136Z,10.65
2019-06-26T08:43:06.002Z,10.63
2019-06-26T08:45:35.847Z,9.23
2019-06-26T08:48:17.273Z,9.00
2019-06-26T08:50:37.097Z,9.03
2019-06-26T08:53:06.971Z,8.15
2019-06-26T08:55:36.764Z,8.65
2019-06-26T08:58:06.640Z,9.05
2019-06-26T09:00:36.469Z,8.75
2019-06-26T09:03:06.239Z,9.03
2019-06-26T09:05:47.574Z,9.58
2019-06-26T09:08:07.491Z,9.55
2019-06-26T09:10:37.425Z,9.85
2019-06-26T09:13:07.199Z,8.75
2019-06-26T09:15:36.966Z,8.43
2019-06-26T09:18:06.751Z,8.40
2019-06-26T09:20:41.024Z,10.08
2019-06-26T09:23:10.849Z,8.78
2019-06-26T09:25:40.617Z,8.13
2019-06-26T09:28:10.402Z,9.05
2019-06-26T09:30:40.222Z,7.58
2019-06-26T09:33:09.976Z,9.45
2019-06-26T09:35:39.821Z,8.73
2019-06-26T09:38:09.580Z,9.38
2019-06-26T09:40:39.369Z,10.95
2019-06-26T09:43:09.193Z,9.48
2019-06-26T09:45:38.985Z,10.60
2019-06-26T09:48:08.833Z,10.38
2019-06-26T09:50:38.647Z,9.40
2019-06-26T09:53:08.407Z,9.33
2019-06-26T09:55:38.160Z,11.28
2019-06-26T09:58:07.900Z,9.75
2019-06-26T10:00:37.896Z,9.43
2019-06-26T10:03:07.690Z,9.50
2019-06-26T10:05:37.451Z,8.65
2019-06-26T10:08:07.236Z,8.20
2019-06-26T10:10:36.935Z,10.55
2019-06-26T10:13:06.808Z,8.38
2019-06-26T10:15:36.641Z,9.78
2019-06-26T10:18:06.502Z,9.98
2019-06-26T10:20:36.262Z,11.05
2019-06-26T10:23:06.021Z,9.55
2019-06-26T10:25:35.881Z,9.00
2019-06-26T10:28:05.721Z,9.28
2019-06-26T10:30:35.503Z,7.80
2019-06-26T10:33:05.265Z,8.23
2019-06-26T10:35:35.063Z,8.93
2019-06-26T10:38:04.935Z,10.78
2019-06-26T10:40:34.721Z,8.80
2019-06-26T10:43:04.592Z,8.13
2019-06-26T10:45:36.192Z,8.68
2019-06-26T10:48:05.903Z,8.40
2019-06-26T10:50:47.421Z,9.10
2019-06-26T10:53:07.238Z,9.18
2019-06-26T10:55:37.005Z,9.53
2019-06-26T10:58:06.824Z,8.73
2019-06-26T11:00:36.635Z,9.85
2019-06-26T11:03:06.435Z,8.93
2019-06-26T11:05:36.189Z,8.65
2019-06-26T11:08:05.995Z,9.80
2019-06-26T11:10:35.749Z,9.50
2019-06-26T11:13:05.637Z,10.13
2019-06-26T11:15:35.455Z,10.15
2019-06-26T11:18:05.413Z,8.75
2019-06-26T11:20:35.267Z,10.18
2019-06-26T11:23:05.061Z,10.43
2019-06-26T11:25:34.890Z,9.18
2019-06-26T11:28:04.817Z,10.80
2019-06-26T11:30:34.621Z,9.05
2019-06-26T11:33:04.526Z,9.90
2019-06-26T11:35:34.373Z,8.70
2019-06-26T11:38:04.271Z,8.73
2019-06-26T11:40:34.142Z,9.73
2019-06-26T11:43:03.999Z,9.08
2019-06-26T11:45:33.919Z,9.88
2019-06-26T11:48:03.822Z,8.35
2019-06-26T11:50:33.576Z,9.35
2019-06-26T11:53:03.453Z,8.75
2019-06-26T11:55:33.357Z,10.10
2019-06-26T11:58:03.233Z,9.73
2019-06-26T12:00:32.946Z,12.05
2019-06-26T12:03:02.720Z,10.85
2019-06-26T12:05:32.435Z,11.22
2019-06-26T12:08:02.210Z,10.53
2019-06-26T12:10:31.933Z,9.93
2019-06-26T12:13:04.261Z,9.90
2019-06-26T12:15:33.252Z,11.03
2019-06-26T12:18:03.022Z,10.88
2019-06-26T12:20:32.801Z,8.08
2019-06-26T12:23:02.569Z,9.60
2019-06-26T12:25:32.344Z,7.90
2019-06-26T12:28:02.150Z,7.70
2019-06-26T12:30:32.153Z,7.42
2019-06-26T12:33:03.611Z,7.58
2019-06-26T12:35:33.453Z,7.20
2019-06-26T12:38:03.297Z,7.20
2019-06-26T12:40:32.998Z,7.25
2019-06-26T12:43:02.761Z,7.30
2019-06-26T12:45:32.632Z,7.42
2019-06-26T12:48:02.308Z,6.83
2019-06-26T12:50:35.966Z,7.10
2019-06-26T12:53:03.561Z,6.12
2019-06-26T12:55:33.299Z,5.97
2019-06-26T12:58:13.219Z,5.62
2019-06-26T13:00:34.839Z,5.55
2019-06-26T13:03:05.098Z,5.42
2019-06-26T13:05:34.852Z,6.03
2019-06-26T13:08:04.824Z,6.17
2019-06-26T13:10:48.491Z,6.47
2019-06-26T13:13:06.120Z,7.33
2019-06-26T13:15:35.933Z,5.47
2019-06-26T13:18:05.778Z,5.33
2019-06-26T13:20:51.587Z,5.53
2019-06-26T13:23:07.162Z,5.37
2019-06-26T13:25:36.933Z,5.72
2019-06-26T13:28:06.815Z,5.78
2019-06-26T13:30:39.971Z,6.67
2019-06-26T13:33:09.809Z,5.90
2019-06-26T13:35:39.680Z,5.90
2019-06-26T13:38:09.546Z,5.53
2019-06-26T13:40:41.070Z,6.17
2019-06-26T13:43:11.081Z,5.22
2019-06-26T13:45:40.828Z,5.80
2019-06-26T13:48:10.604Z,5.78
2019-06-26T13:50:40.519Z,6.83
2019-06-26T13:53:10.306Z,6.08
2019-06-26T13:55:40.859Z,6.42
2019-06-26T13:58:10.772Z,5.95
2019-06-26T14:00:40.465Z,6.37
2019-06-26T14:03:10.294Z,5.78
2019-06-26T14:05:40.174Z,6.33
2019-06-26T14:08:09.990Z,5.97
2019-06-26T14:10:39.796Z,5.72
2019-06-26T14:13:09.941Z,6.40
2019-06-26T14:15:39.623Z,6.37
2019-06-26T14:18:09.387Z,6.45
2019-06-26T14:20:39.184Z,6.17
2019-06-26T14:23:09.275Z,6.35
2019-06-26T14:25:38.973Z,6.50
2019-06-26T14:28:08.659Z,6.62
2019-06-26T14:30:38.388Z,6.15
2019-06-26T14:33:08.204Z,6.42
2019-06-26T14:35:38.138Z,5.83
2019-06-26T14:38:07.978Z,6.53
2019-06-26T14:40:37.807Z,6.87
2019-06-26T14:43:07.623Z,6.17
2019-06-26T14:45:37.397Z,6.12
2019-06-26T14:48:07.227Z,6.65
2019-06-26T14:50:36.972Z,6.30
2019-06-26T14:53:06.676Z,5.95
2019-06-26T14:55:36.447Z,6.03
2019-06-26T14:58:06.333Z,6.17
2019-06-26T15:00:36.317Z,6.05
2019-06-26T15:03:06.180Z,5.62
2019-06-26T15:05:35.862Z,6.50
2019-06-26T15:08:05.790Z,7.08
2019-06-26T15:10:35.664Z,6.50
2019-06-26T15:13:05.575Z,6.65
2019-06-26T15:15:35.469Z,6.72
2019-06-26T15:18:05.260Z,6.95
2019-06-26T15:20:34.973Z,7.03
2019-06-26T15:23:04.779Z,7.53
2019-06-26T15:25:34.567Z,6.70
2019-06-26T15:28:04.507Z,7.58
2019-06-26T15:30:34.453Z,6.95
2019-06-26T15:33:04.281Z,6.20
2019-06-26T15:35:34.436Z,6.42
2019-06-26T15:38:04.454Z,7.10
2019-06-26T15:40:34.436Z,7.40
2019-06-26T15:43:04.251Z,6.35
2019-06-26T15:45:34.034Z,6.40
2019-06-26T15:48:03.930Z,6.35
2019-06-26T15:50:33.608Z,7.10
2019-06-26T15:53:03.317Z,7.12
2019-06-26T15:55:33.135Z,6.83
2019-06-26T15:58:02.902Z,6.95
2019-06-26T16:00:32.652Z,7.20
2019-06-26T16:03:02.416Z,6.87
2019-06-26T16:05:32.134Z,7.15
2019-06-26T16:08:01.832Z,7.47
2019-06-26T16:10:34.471Z,6.87
2019-06-26T16:13:03.289Z,6.80
2019-06-26T16:15:33.757Z,6.37
2019-06-26T16:18:21.498Z,7.00
2019-06-26T16:20:51.245Z,6.58
2019-06-26T16:23:21.036Z,6.85
2019-06-26T16:25:50.796Z,6.10
2019-06-26T16:28:20.519Z,6.30
2019-06-26T16:30:50.327Z,6.00
2019-06-26T16:33:20.018Z,5.83
2019-06-26T16:35:49.857Z,5.95
2019-06-26T16:38:19.735Z,6.20
2019-06-26T16:40:49.481Z,6.10
2019-06-26T16:43:19.235Z,5.60
2019-06-26T16:45:49.027Z,5.20
2019-06-26T16:48:18.800Z,5.08
2019-06-26T16:50:48.600Z,4.75
2019-06-26T16:53:18.405Z,4.72
2019-06-26T16:55:48.180Z,4.03
2019-06-26T16:58:17.855Z,4.35
2019-06-26T17:00:47.750Z,3.70
2019-06-26T17:03:17.639Z,4.17
2019-06-26T17:05:47.395Z,3.92
2019-06-26T17:08:17.178Z,3.90
2019-06-26T17:10:46.994Z,3.85
2019-06-26T17:13:16.827Z,3.87
2019-06-26T17:15:46.668Z,4.20
2019-06-26T17:18:16.369Z,3.77
2019-06-26T17:20:46.209Z,4.17
2019-06-26T17:23:15.980Z,3.92
2019-06-26T17:25:45.731Z,3.77
2019-06-26T17:28:15.429Z,3.45
2019-06-26T17:30:45.096Z,3.70
2019-06-26T17:33:14.921Z,4.08
2019-06-26T17:35:44.775Z,3.83
2019-06-26T17:38:14.446Z,3.60
2019-06-26T17:40:44.165Z,3.83
2019-06-26T17:43:13.843Z,3.35
2019-06-26T17:45:43.754Z,3.93
2019-06-26T17:48:13.425Z,3.92
2019-06-26T17:50:43.134Z,3.87
2019-06-26T17:53:21.486Z,3.80
2019-06-26T17:55:44.225Z,4.15
2019-06-26T17:58:13.934Z,4.50
2019-06-26T18:00:43.633Z,4.50
2019-06-26T18:03:13.500Z,4.97
2019-06-26T18:05:43.228Z,4.00
2019-06-26T18:08:12.989Z,4.90
2019-06-26T18:10:42.788Z,4.80
2019-06-26T18:13:12.477Z,4.80
2019-06-26T18:15:42.306Z,5.07
2019-06-26T18:18:12.087Z,4.77
2019-06-26T18:20:41.849Z,5.37
2019-06-26T18:23:11.636Z,5.23
2019-06-26T18:25:42.572Z,4.93
2019-06-26T18:28:12.405Z,5.43
2019-06-26T18:30:42.251Z,5.23
2019-06-26T18:33:12.102Z,6.07
2019-06-26T18:35:41.883Z,6.20
2019-06-26T18:38:11.845Z,6.60
2019-06-26T18:40:41.515Z,5.83
2019-06-26T18:43:11.211Z,6.90
2019-06-26T18:45:41.006Z,6.40
2019-06-26T18:48:10.772Z,7.23
2019-06-26T18:50:40.652Z,7.20
2019-06-26T18:53:10.426Z,6.87
2019-06-26T18:55:40.186Z,6.93
2019-06-26T18:58:09.975Z,7.23
2019-06-26T19:00:39.728Z,6.53
2019-06-26T19:03:09.526Z,7.03
2019-06-26T19:05:39.778Z,7.57
2019-06-26T19:08:09.508Z,7.50
2019-06-26T19:10:39.262Z,7.43
2019-06-26T19:13:08.982Z,7.50
2019-06-26T19:15:38.731Z,7.03
2019-06-26T19:18:08.529Z,6.97
2019-06-26T19:20:38.210Z,6.67
2019-06-26T19:23:07.937Z,6.73
2019-06-26T19:25:37.695Z,6.03
2019-06-26T19:28:07.500Z,6.50
2019-06-26T19:30:37.262Z,5.83
2019-06-26T19:33:07.123Z,6.10
2019-06-26T19:35:36.919Z,5.33
2019-06-26T19:38:06.749Z,5.83
2019-06-26T19:40:36.540Z,5.77
2019-06-26T19:43:06.318Z,5.20
2019-06-26T19:45:36.020Z,5.03
2019-06-26T19:48:05.834Z,5.07
2019-06-26T19:50:35.562Z,4.47
2019-06-26T19:53:05.398Z,4.57
2019-06-26T19:55:35.166Z,3.67
2019-06-26T19:58:04.985Z,3.57
2019-06-26T20:00:34.739Z,3.77
2019-06-26T20:03:04.521Z,3.47
2019-06-26T20:05:34.281Z,3.37
2019-06-26T20:08:04.121Z,3.37
2019-06-26T20:10:33.943Z,3.30
2019-06-26T20:13:03.662Z,3.07
2019-06-26T20:15:33.578Z,2.63
2019-06-26T20:18:04.391Z,3.00
2019-06-26T20:20:34.291Z,2.97
2019-06-26T20:23:04.031Z,2.90
2019-06-26T20:25:33.902Z,2.60
2019-06-26T20:28:03.734Z,2.40
2019-06-26T20:30:33.900Z,2.20
2019-06-26T20:33:03.763Z,2.30
2019-06-26T20:35:33.530Z,2.30
2019-06-26T20:38:03.359Z,2.30
2019-06-26T20:40:33.077Z,2.70
2019-06-26T20:43:03.013Z,2.63
2019-06-26T20:45:32.799Z,2.70
2019-06-26T20:48:02.586Z,2.30
2019-06-26T20:50:32.363Z,3.10
2019-06-26T20:53:02.087Z,2.37
2019-06-26T20:55:31.803Z,2.60
2019-06-26T20:58:01.496Z,2.40
2019-06-26T21:00:31.318Z,2.53
2019-06-26T21:03:01.115Z,2.63
2019-06-26T21:05:30.806Z,2.30
2019-06-26T21:08:00.594Z,2.40
2019-06-26T21:10:30.361Z,3.10
2019-06-26T21:13:00.091Z,2.40
2019-06-26T21:15:29.978Z,2.67
2019-06-26T21:17:59.680Z,3.10
2019-06-26T21:20:29.373Z,3.00
2019-06-26T21:22:59.118Z,2.97
2019-06-26T21:25:28.813Z,3.13
2019-06-26T21:27:58.600Z,3.30
2019-06-26T21:30:28.319Z,3.40
2019-06-26T21:32:58.048Z,3.70
2019-06-26T21:35:27.804Z,3.63
2019-06-26T21:37:57.612Z,3.00
2019-06-26T21:40:27.295Z,3.73
2019-06-26T21:42:57.038Z,3.27
2019-06-26T21:45:26.832Z,3.50
2019-06-26T21:47:56.660Z,3.27
2019-06-26T21:50:28.831Z,3.40
2019-06-26T21:52:57.942Z,3.40
2019-06-26T21:55:34.409Z,3.93
2019-06-26T21:57:59.192Z,3.57
2019-06-26T22:00:30.987Z,3.20
2019-06-26T22:03:00.918Z,3.63
2019-06-26T22:05:30.760Z,4.00
2019-06-26T22:08:00.584Z,3.40
2019-06-26T22:10:30.481Z,3.80
2019-06-26T22:13:00.252Z,3.17
2019-06-26T22:15:30.066Z,3.50
2019-06-26T22:17:59.871Z,3.90
2019-06-26T22:20:29.738Z,3.30
2019-06-26T22:22:59.448Z,3.97
2019-06-26T22:25:29.312Z,3.77
2019-06-26T22:27:59.097Z,4.67
2019-06-26T22:30:29.055Z,4.27
2019-06-26T22:32:59.210Z,4.17
2019-06-26T22:35:28.973Z,3.93
2019-06-26T22:37:58.776Z,4.53
2019-06-26T22:40:28.536Z,4.30
2019-06-26T22:42:58.572Z,4.67
2019-06-26T22:45:28.325Z,4.30
2019-06-26T22:47:58.040Z,4.30
2019-06-26T22:50:27.807Z,4.33
2019-06-26T22:52:57.576Z,4.90
2019-06-26T22:55:27.443Z,4.27
2019-06-26T22:57:57.215Z,5.27
2019-06-26T23:00:26.994Z,5.47
2019-06-26T23:02:56.829Z,4.90
2019-06-26T23:05:26.715Z,4.93
2019-06-26T23:07:56.584Z,5.13
2019-06-26T23:10:26.423Z,4.80
2019-06-26T23:12:56.143Z,5.20
2019-06-26T23:15:25.916Z,4.67
2019-06-26T23:17:56.318Z,4.53
2019-06-26T23:20:26.132Z,4.07
2019-06-26T23:22:55.921Z,4.30
2019-06-26T23:25:25.796Z,3.93
2019-06-26T23:27:55.476Z,4.33
2019-06-26T23:30:25.435Z,3.97
2019-06-26T23:32:55.251Z,4.20
2019-06-26T23:35:25.006Z,3.57
2019-06-26T23:37:54.950Z,4.10
2019-06-26T23:40:24.716Z,3.90
2019-06-26T23:42:54.530Z,3.43
2019-06-26T23:45:24.364Z,3.30
2019-06-26T23:47:54.154Z,3.30
2019-06-26T23:50:23.834Z,3.17
2019-06-26T23:52:53.640Z,3.47
2019-06-26T23:55:23.431Z,3.73
2019-06-26T23:57:58.979Z,3.20
